sensor_id;sensor_type;location;lat;lon;timestamp;pressure;altitude;pressure_sealevel;temperature;humidity
47054;BME280;32811;52.382;5.270;2023-05-22T00:00:07;101678.44;;;14.70;100.00
47054;BME280;32811;52.382;5.270;2023-05-22T00:02:34;101674.09;;;14.67;100.00
47054;BME280;32811;52.382;5.270;2023-05-22T00:05:04;101669.78;;;14.72;100.00
47054;BME280;32811;52.382;5.270;2023-05-22T00:07:32;101665.44;;;14.74;100.00
47054;BME280;32811;52.382;5.270;2023-05-22T00:09:58;101668.03;;;14.74;100.00
47054;BME280;32811;52.382;5.270;2023-05-22T00:12:25;101681.88;;;14.80;100.00
47054;BME280;32811;52.382;5.270;2023-05-22T00:14:52;101685.38;;;14.80;100.00
47054;BME280;32811;52.382;5.270;2023-05-22T00:17:18;101677.56;;;14.82;100.00
47054;BME280;32811;52.382;5.270;2023-05-22T00:19:45;101681.91;;;14.87;100.00
47054;BME280;32811;52.382;5.270;2023-05-22T00:22:12;101674.13;;;14.87;100.00
47054;BME280;32811;52.382;5.270;2023-05-22T00:24:39;101674.97;;;14.89;100.00
47054;BME280;32811;52.382;5.270;2023-05-22T00:27:06;101668.91;;;14.89;100.00
47054;BME280;32811;52.382;5.270;2023-05-22T00:29:32;101660.25;;;14.90;100.00
47054;BME280;32811;52.382;5.270;2023-05-22T00:31:59;101661.09;;;14.90;100.00
47054;BME280;32811;52.382;5.270;2023-05-22T00:34:26;101655.03;;;14.88;100.00
47054;BME280;32811;52.382;5.270;2023-05-22T00:36:53;101669.75;;;14.91;100.00
47054;BME280;32811;52.382;5.270;2023-05-22T00:39:19;101663.69;;;14.89;100.00
47054;BME280;32811;52.382;5.270;2023-05-22T00:41:47;101661.97;;;14.92;100.00
47054;BME280;32811;52.382;5.270;2023-05-22T00:44:13;101658.50;;;14.93;100.00
47054;BME280;32811;52.382;5.270;2023-05-22T00:46:40;101656.78;;;14.94;100.00
47054;BME280;32811;52.382;5.270;2023-05-22T00:49:08;101655.03;;;14.90;100.00
47054;BME280;32811;52.382;5.270;2023-05-22T00:51:35;101656.78;;;14.88;100.00
47054;BME280;32811;52.382;5.270;2023-05-22T00:54:02;101657.63;;;14.84;100.00
47054;BME280;32811;52.382;5.270;2023-05-22T00:56:29;101661.13;;;14.87;100.00
47054;BME280;32811;52.382;5.270;2023-05-22T00:58:57;101650.69;;;14.89;100.00
47054;BME280;32811;52.382;5.270;2023-05-22T01:01:24;101642.91;;;14.89;100.00
47054;BME280;32811;52.382;5.270;2023-05-22T01:03:52;101630.81;;;14.85;100.00
47054;BME280;32811;52.382;5.270;2023-05-22T01:06:19;101638.56;;;14.86;100.00
47054;BME280;32811;52.382;5.270;2023-05-22T01:08:48;101643.78;;;14.85;100.00
47054;BME280;32811;52.382;5.270;2023-05-22T01:11:20;101637.72;;;14.83;100.00
47054;BME280;32811;52.382;5.270;2023-05-22T01:14:01;101644.66;;;14.81;100.00
47054;BME280;32811;52.382;5.270;2023-05-22T01:28:39;101615.19;;;14.71;100.00
47054;BME280;32811;52.382;5.270;2023-05-22T01:31:08;101601.34;;;14.66;100.00
47054;BME280;32811;52.382;5.270;2023-05-22T01:33:44;101587.47;;;14.55;100.00
47054;BME280;32811;52.382;5.270;2023-05-22T01:36:18;101580.53;;;14.50;100.00
47054;BME280;32811;52.382;5.270;2023-05-22T01:38:49;101566.69;;;14.45;100.00
47054;BME280;32811;52.382;5.270;2023-05-22T01:41:17;101543.31;;;14.31;100.00
47054;BME280;32811;52.382;5.270;2023-05-22T01:43:46;101561.47;;;14.38;100.00
47054;BME280;32811;52.382;5.270;2023-05-22T01:46:15;101558.00;;;14.42;100.00
47054;BME280;32811;52.382;5.270;2023-05-22T01:48:43;101553.69;;;14.39;100.00
47054;BME280;32811;52.382;5.270;2023-05-22T01:51:20;101550.22;;;14.39;100.00
47054;BME280;32811;52.382;5.270;2023-05-22T01:54:00;101579.66;;;14.48;100.00
47054;BME280;32811;52.382;5.270;2023-05-22T01:56:40;101570.13;;;14.41;100.00
47054;BME280;32811;52.382;5.270;2023-05-22T01:59:15;101564.06;;;14.35;100.00
47054;BME280;32811;52.382;5.270;2023-05-22T02:01:46;101563.22;;;14.36;100.00
47054;BME280;32811;52.382;5.270;2023-05-22T02:04:17;101545.91;;;14.21;100.00
47054;BME280;32811;52.382;5.270;2023-05-22T02:06:45;101542.41;;;14.14;100.00
47054;BME280;32811;52.382;5.270;2023-05-22T02:09:13;101561.47;;;14.25;100.00
47054;BME280;32811;52.382;5.270;2023-05-22T02:11:42;101544.16;;;14.14;100.00
47054;BME280;32811;52.382;5.270;2023-05-22T02:14:09;101563.22;;;14.20;100.00
47054;BME280;32811;52.382;5.270;2023-05-22T02:16:37;101537.22;;;14.09;100.00
47054;BME280;32811;52.382;5.270;2023-05-22T02:19:04;101524.22;;;14.02;100.00
47054;BME280;32811;52.382;5.270;2023-05-22T02:21:33;101548.47;;;14.04;100.00
47054;BME280;32811;52.382;5.270;2023-05-22T02:24:01;101543.25;;;13.93;100.00
47054;BME280;32811;52.382;5.270;2023-05-22T02:26:28;101551.03;;;13.95;100.00
47054;BME280;32811;52.382;5.270;2023-05-22T02:28:54;101513.78;;;13.73;100.00
47054;BME280;32811;52.382;5.270;2023-05-22T02:31:21;101522.47;;;13.76;100.00
47054;BME280;32811;52.382;5.270;2023-05-22T02:33:48;101531.97;;;13.77;100.00
47054;BME280;32811;52.382;5.270;2023-05-22T02:36:15;101538.88;;;13.72;100.00
47054;BME280;32811;52.382;5.270;2023-05-22T02:38:42;101527.63;;;13.62;100.00
47054;BME280;32811;52.382;5.270;2023-05-22T02:41:08;101532.78;;;13.61;100.00
47054;BME280;32811;52.382;5.270;2023-05-22T02:43:35;101531.06;;;13.57;100.00
47054;BME280;32811;52.382;5.270;2023-05-22T02:46:02;101505.06;;;13.38;100.00
47054;BME280;32811;52.382;5.270;2023-05-22T02:48:28;101504.22;;;13.42;100.00
47054;BME280;32811;52.382;5.270;2023-05-22T02:50:55;101502.47;;;13.43;100.00
47054;BME280;32811;52.382;5.270;2023-05-22T02:53:22;101526.75;;;13.56;100.00
47054;BME280;32811;52.382;5.270;2023-05-22T02:55:48;101502.47;;;13.38;100.00
47054;BME280;32811;52.382;5.270;2023-05-22T02:58:15;101507.66;;;13.41;100.00
47054;BME280;32811;52.382;5.270;2023-05-22T03:00:43;101511.16;;;13.46;100.00
47054;BME280;32811;52.382;5.270;2023-05-22T03:03:10;101525.03;;;13.58;100.00
47054;BME280;32811;52.382;5.270;2023-05-22T03:05:37;101499.88;;;13.35;100.00
47054;BME280;32811;52.382;5.270;2023-05-22T03:08:05;101487.75;;;13.33;100.00
47054;BME280;32811;52.382;5.270;2023-05-22T03:10:32;101528.50;;;13.60;100.00
47054;BME280;32811;52.382;5.270;2023-05-22T03:12:58;101492.13;;;13.40;100.00
47054;BME280;32811;52.382;5.270;2023-05-22T03:15:25;101508.56;;;13.51;100.00
47054;BME280;32811;52.382;5.270;2023-05-22T03:17:52;101516.34;;;13.46;100.00
47054;BME280;32811;52.382;5.270;2023-05-22T03:20:18;101525.84;;;13.49;100.00
47054;BME280;32811;52.382;5.270;2023-05-22T03:22:45;101518.91;;;13.48;100.00
47054;BME280;32811;52.382;5.270;2023-05-22T03:25:12;101509.38;;;13.33;100.00
47054;BME280;32811;52.382;5.270;2023-05-22T03:27:39;101507.59;;;13.24;100.00
47054;BME280;32811;52.382;5.270;2023-05-22T03:30:08;101536.16;;;13.37;100.00
47054;BME280;32811;52.382;5.270;2023-05-22T03:32:35;101533.53;;;13.31;100.00
47054;BME280;32811;52.382;5.270;2023-05-22T03:35:03;101533.50;;;13.23;100.00
47054;BME280;32811;52.382;5.270;2023-05-22T03:37:30;101561.22;;;13.35;100.00
47054;BME280;32811;52.382;5.270;2023-05-22T03:39:57;101565.59;;;13.42;100.00
47054;BME280;32811;52.382;5.270;2023-05-22T03:42:24;101528.31;;;13.20;100.00
47054;BME280;32811;52.382;5.270;2023-05-22T03:44:50;101529.16;;;13.17;100.00
47054;BME280;32811;52.382;5.270;2023-05-22T03:47:17;101545.59;;;13.25;100.00
47054;BME280;32811;52.382;5.270;2023-05-22T03:49:44;101530.91;;;13.23;100.00
47054;BME280;32811;52.382;5.270;2023-05-22T03:52:11;101525.69;;;13.18;100.00
47054;BME280;32811;52.382;5.270;2023-05-22T03:54:37;101572.50;;;13.40;100.00
47054;BME280;32811;52.382;5.270;2023-05-22T03:57:04;101543.09;;;13.33;100.00
47054;BME280;32811;52.382;5.270;2023-05-22T03:59:31;101548.34;;;13.52;100.00
47054;BME280;32811;52.382;5.270;2023-05-22T04:01:58;101534.41;;;13.29;100.00
47054;BME280;32811;52.382;5.270;2023-05-22T04:04:27;101525.72;;;13.26;100.00
47054;BME280;32811;52.382;5.270;2023-05-22T04:06:54;101554.34;;;13.40;100.00
47054;BME280;32811;52.382;5.270;2023-05-22T04:09:26;101571.69;;;13.53;100.00
47054;BME280;32811;52.382;5.270;2023-05-22T04:11:53;101541.38;;;13.38;100.00
47054;BME280;32811;52.382;5.270;2023-05-22T04:14:19;101573.44;;;13.56;100.00
47054;BME280;32811;52.382;5.270;2023-05-22T04:16:46;101567.38;;;13.57;100.00
47054;BME280;32811;52.382;5.270;2023-05-22T04:19:15;101551.78;;;13.49;100.00
47054;BME280;32811;52.382;5.270;2023-05-22T04:21:43;101565.66;;;13.56;100.00
47054;BME280;32811;52.382;5.270;2023-05-22T04:24:10;101576.94;;;13.67;100.00
47054;BME280;32811;52.382;5.270;2023-05-22T04:26:37;101581.25;;;13.69;100.00
47054;BME280;32811;52.382;5.270;2023-05-22T04:29:07;101566.56;;;13.67;100.00
47054;BME280;32811;52.382;5.270;2023-05-22T04:31:35;101553.53;;;13.59;100.00
47054;BME280;32811;52.382;5.270;2023-05-22T04:34:02;101592.53;;;13.85;100.00
47054;BME280;32811;52.382;5.270;2023-05-22T04:36:30;101578.66;;;13.77;100.00
47054;BME280;32811;52.382;5.270;2023-05-22T04:38:57;101595.16;;;13.91;100.00
47054;BME280;32811;52.382;5.270;2023-05-22T04:41:25;101544.94;;;13.73;100.00
47054;BME280;32811;52.382;5.270;2023-05-22T04:43:52;101576.13;;;13.99;100.00
47054;BME280;32811;52.382;5.270;2023-05-22T04:46:19;101567.47;;;13.97;100.00
47054;BME280;32811;52.382;5.270;2023-05-22T04:48:46;101582.22;;;14.10;100.00
47054;BME280;32811;52.382;5.270;2023-05-22T04:51:13;101570.09;;;14.10;100.00
47054;BME280;32811;52.382;5.270;2023-05-22T04:53:40;101566.69;;;14.22;100.00
47054;BME280;32811;52.382;5.270;2023-05-22T04:56:06;101599.56;;;14.48;100.00
47054;BME280;32811;52.382;5.270;2023-05-22T04:58:33;101598.75;;;14.58;100.00
47054;BME280;32811;52.382;5.270;2023-05-22T05:01:00;101562.34;;;14.52;100.00
47054;BME280;32811;52.382;5.270;2023-05-22T05:03:26;101581.41;;;14.76;100.00
47054;BME280;32811;52.382;5.270;2023-05-22T05:05:54;101590.06;;;14.96;100.00
47054;BME280;32811;52.382;5.270;2023-05-22T05:08:22;101565.78;;;14.97;100.00
47054;BME280;32811;52.382;5.270;2023-05-22T05:10:48;101583.91;;;15.25;100.00
47054;BME280;32811;52.382;5.270;2023-05-22T05:13:15;101594.22;;;15.49;100.00
47054;BME280;32811;52.382;5.270;2023-05-22T05:15:42;101562.94;;;15.65;100.00
47054;BME280;32811;52.382;5.270;2023-05-22T05:18:08;101573.22;;;15.97;100.00
47054;BME280;32811;52.382;5.270;2023-05-22T05:20:35;101558.28;;;16.22;100.00
47054;BME280;32811;52.382;5.270;2023-05-22T05:23:02;101554.63;;;16.48;100.00
47054;BME280;32811;52.382;5.270;2023-05-22T05:25:29;101559.69;;;16.62;100.00
47054;BME280;32811;52.382;5.270;2023-05-22T05:27:56;101560.50;;;16.67;100.00
47054;BME280;32811;52.382;5.270;2023-05-22T05:30:23;101543.06;;;16.73;100.00
47054;BME280;32811;52.382;5.270;2023-05-22T05:32:49;101553.38;;;16.90;100.00
47054;BME280;32811;52.382;5.270;2023-05-22T05:35:16;101563.72;;;16.98;100.00
47054;BME280;32811;52.382;5.270;2023-05-22T05:37:43;101548.25;;;16.79;100.00
47054;BME280;32811;52.382;5.270;2023-05-22T05:40:10;101567.31;;;16.85;100.00
47054;BME280;32811;52.382;5.270;2023-05-22T05:42:37;101576.81;;;16.92;100.00
47054;BME280;32811;52.382;5.270;2023-05-22T05:45:04;101566.00;;;17.27;100.00
47054;BME280;32811;52.382;5.270;2023-05-22T05:47:30;101554.44;;;17.47;100.00
47054;BME280;32811;52.382;5.270;2023-05-22T05:49:57;101549.03;;;17.60;100.00
47054;BME280;32811;52.382;5.270;2023-05-22T05:52:24;101561.50;;;17.40;100.00
47054;BME280;32811;52.382;5.270;2023-05-22T05:54:52;101562.47;;;17.31;100.00
47054;BME280;32811;52.382;5.270;2023-05-22T05:57:19;101563.59;;;17.78;100.00
47054;BME280;32811;52.382;5.270;2023-05-22T05:59:46;101554.59;;;18.01;100.00
47054;BME280;32811;52.382;5.270;2023-05-22T06:02:13;101557.41;;;18.43;100.00
47054;BME280;32811;52.382;5.270;2023-05-22T06:04:39;101553.78;;;18.52;100.00
47054;BME280;32811;52.382;5.270;2023-05-22T06:07:07;101548.97;;;18.77;100.00
47054;BME280;32811;52.382;5.270;2023-05-22T06:09:34;101543.34;;;19.00;100.00
47054;BME280;32811;52.382;5.270;2023-05-22T06:12:01;101551.06;;;19.07;100.00
47054;BME280;32811;52.382;5.270;2023-05-22T06:14:28;101552.09;;;18.99;100.00
47054;BME280;32811;52.382;5.270;2023-05-22T06:16:54;101554.28;;;19.20;100.00
47054;BME280;32811;52.382;5.270;2023-05-22T06:19:21;101546.06;;;19.37;100.00
47054;BME280;32811;52.382;5.270;2023-05-22T06:21:48;101545.53;;;19.63;100.00
47054;BME280;32811;52.382;5.270;2023-05-22T06:24:17;101540.19;;;19.68;100.00
47054;BME280;32811;52.382;5.270;2023-05-22T06:26:44;101552.88;;;19.86;100.00
47054;BME280;32811;52.382;5.270;2023-05-22T06:29:11;101541.06;;;20.07;100.00
47054;BME280;32811;52.382;5.270;2023-05-22T06:31:38;101543.13;;;20.30;100.00
47054;BME280;32811;52.382;5.270;2023-05-22T06:34:05;101546.19;;;20.48;100.00
47054;BME280;32811;52.382;5.270;2023-05-22T06:36:32;101552.19;;;20.51;100.00
47054;BME280;32811;52.382;5.270;2023-05-22T06:39:01;101549.78;;;20.78;100.00
47054;BME280;32811;52.382;5.270;2023-05-22T06:41:28;101551.09;;;20.94;100.00
47054;BME280;32811;52.382;5.270;2023-05-22T06:43:54;101553.72;;;20.94;100.00
47054;BME280;32811;52.382;5.270;2023-05-22T06:46:21;101551.13;;;20.93;100.00
47054;BME280;32811;52.382;5.270;2023-05-22T06:48:51;101545.84;;;20.94;100.00
47054;BME280;32811;52.382;5.270;2023-05-22T06:51:18;101535.94;;;20.73;100.00
47054;BME280;32811;52.382;5.270;2023-05-22T06:53:44;101559.94;;;20.90;100.00
47054;BME280;32811;52.382;5.270;2023-05-22T06:56:11;101558.34;;;20.85;100.00
47054;BME280;32811;52.382;5.270;2023-05-22T06:58:38;101552.47;;;21.08;100.00
47054;BME280;32811;52.382;5.270;2023-05-22T07:01:04;101562.97;;;21.08;100.00
47054;BME280;32811;52.382;5.270;2023-05-22T07:03:31;101558.28;;;21.19;100.00
47054;BME280;32811;52.382;5.270;2023-05-22T07:05:58;101554.41;;;20.68;100.00
47054;BME280;32811;52.382;5.270;2023-05-22T07:08:25;101572.72;;;21.03;100.00
47054;BME280;32811;52.382;5.270;2023-05-22T07:10:55;101555.97;;;20.76;100.00
47054;BME280;32811;52.382;5.270;2023-05-22T07:13:21;101572.00;;;20.65;100.00
47054;BME280;32811;52.382;5.270;2023-05-22T07:15:50;101544.78;;;20.69;100.00
47054;BME280;32811;52.382;5.270;2023-05-22T07:18:16;101556.59;;;20.85;100.00
47054;BME280;32811;52.382;5.270;2023-05-22T07:20:43;101572.91;;;20.64;100.00
47054;BME280;32811;52.382;5.270;2023-05-22T07:23:10;101571.16;;;21.28;100.00
47054;BME280;32811;52.382;5.270;2023-05-22T07:25:37;101568.81;;;20.86;100.00
47054;BME280;32811;52.382;5.270;2023-05-22T07:28:04;101578.47;;;20.84;100.00
47054;BME280;32811;52.382;5.270;2023-05-22T07:30:36;101575.28;;;20.73;100.00
47054;BME280;32811;52.382;5.270;2023-05-22T07:33:04;101586.50;;;21.11;100.00
47054;BME280;32811;52.382;5.270;2023-05-22T07:35:31;101563.88;;;21.07;100.00
47054;BME280;32811;52.382;5.270;2023-05-22T07:37:57;101553.31;;;21.10;100.00
47054;BME280;32811;52.382;5.270;2023-05-22T07:40:24;101553.59;;;21.30;100.00
47054;BME280;32811;52.382;5.270;2023-05-22T07:42:52;101537.19;;;21.22;100.00
47054;BME280;32811;52.382;5.270;2023-05-22T07:45:19;101563.84;;;21.38;100.00
47054;BME280;32811;52.382;5.270;2023-05-22T07:47:45;101556.94;;;21.35;100.00
47054;BME280;32811;52.382;5.270;2023-05-22T07:50:12;101576.06;;;21.41;100.00
47054;BME280;32811;52.382;5.270;2023-05-22T07:52:42;101575.59;;;21.58;100.00
47054;BME280;32811;52.382;5.270;2023-05-22T07:55:09;101581.09;;;21.78;100.00
47054;BME280;32811;52.382;5.270;2023-05-22T07:57:37;101571.44;;;21.79;100.00
47054;BME280;32811;52.382;5.270;2023-05-22T08:00:04;101571.53;;;21.75;100.00
47054;BME280;32811;52.382;5.270;2023-05-22T08:02:40;101589.28;;;21.67;100.00
47054;BME280;32811;52.382;5.270;2023-05-22T08:05:08;101586.00;;;21.61;100.00
47054;BME280;32811;52.382;5.270;2023-05-22T08:07:35;101587.81;;;21.88;100.00
47054;BME280;32811;52.382;5.270;2023-05-22T08:10:05;101563.28;;;22.14;100.00
47054;BME280;32811;52.382;5.270;2023-05-22T08:12:33;101577.25;;;22.45;100.00
47054;BME280;32811;52.382;5.270;2023-05-22T08:14:59;101568.19;;;22.53;100.00
47054;BME280;32811;52.382;5.270;2023-05-22T08:17:26;101576.94;;;22.54;100.00
47054;BME280;32811;52.382;5.270;2023-05-22T08:19:52;101571.91;;;22.73;100.00
47054;BME280;32811;52.382;5.270;2023-05-22T08:22:19;101568.53;;;22.69;100.00
47054;BME280;32811;52.382;5.270;2023-05-22T08:24:46;101587.78;;;22.95;100.00
47054;BME280;32811;52.382;5.270;2023-05-22T08:27:13;101588.69;;;22.95;100.00
47054;BME280;32811;52.382;5.270;2023-05-22T08:29:39;101566.16;;;23.12;100.00
47054;BME280;32811;52.382;5.270;2023-05-22T08:32:06;101566.75;;;23.20;100.00
47054;BME280;32811;52.382;5.270;2023-05-22T08:34:34;101571.34;;;22.88;100.00
47054;BME280;32811;52.382;5.270;2023-05-22T08:37:00;101572.75;;;22.98;100.00
47054;BME280;32811;52.382;5.270;2023-05-22T08:39:28;101586.63;;;23.04;100.00
47054;BME280;32811;52.382;5.270;2023-05-22T08:41:57;101553.41;;;23.25;100.00
47054;BME280;32811;52.382;5.270;2023-05-22T08:44:24;101563.91;;;23.01;100.00
47054;BME280;32811;52.382;5.270;2023-05-22T08:46:53;101542.59;;;22.32;100.00
47054;BME280;32811;52.382;5.270;2023-05-22T08:49:22;101577.19;;;22.73;100.00
47054;BME280;32811;52.382;5.270;2023-05-22T08:51:53;101574.47;;;22.74;100.00
47054;BME280;32811;52.382;5.270;2023-05-22T08:54:22;101583.41;;;22.95;100.00
47054;BME280;32811;52.382;5.270;2023-05-22T08:56:52;101554.94;;;23.07;100.00
47054;BME280;32811;52.382;5.270;2023-05-22T08:59:23;101548.72;;;23.09;100.00
47054;BME280;32811;52.382;5.270;2023-05-22T09:01:50;101565.19;;;23.14;100.00
47054;BME280;32811;52.382;5.270;2023-05-22T09:04:18;101560.22;;;23.07;100.00
47054;BME280;32811;52.382;5.270;2023-05-22T09:06:49;101540.81;;;22.84;100.00
47054;BME280;32811;52.382;5.270;2023-05-22T09:09:16;101528.41;;;22.37;100.00
47054;BME280;32811;52.382;5.270;2023-05-22T09:11:43;101545.47;;;22.76;100.00
47054;BME280;32811;52.382;5.270;2023-05-22T09:14:10;101549.28;;;23.41;100.00
47054;BME280;32811;52.382;5.270;2023-05-22T09:16:47;101548.81;;;23.06;100.00
47054;BME280;32811;52.382;5.270;2023-05-22T09:19:14;101567.03;;;23.12;100.00
47054;BME280;32811;52.382;5.270;2023-05-22T09:21:41;101537.13;;;22.88;100.00
47054;BME280;32811;52.382;5.270;2023-05-22T09:24:10;101515.22;;;22.88;100.00
47054;BME280;32811;52.382;5.270;2023-05-22T09:26:38;101520.47;;;23.13;100.00
47054;BME280;32811;52.382;5.270;2023-05-22T09:29:19;101538.69;;;23.19;100.00
47054;BME280;32811;52.382;5.270;2023-05-22T09:31:46;101532.44;;;23.21;100.00
47054;BME280;32811;52.382;5.270;2023-05-22T09:34:13;101551.47;;;23.30;100.00
47054;BME280;32811;52.382;5.270;2023-05-22T09:36:40;101547.34;;;23.23;100.00
47054;BME280;32811;52.382;5.270;2023-05-22T09:39:07;101521.06;;;23.21;100.00
47054;BME280;32811;52.382;5.270;2023-05-22T09:41:38;101561.63;;;23.62;100.00
47054;BME280;32811;52.382;5.270;2023-05-22T09:44:13;101526.03;;;23.05;100.00
47054;BME280;32811;52.382;5.270;2023-05-22T09:46:43;101552.53;;;23.24;100.00
47054;BME280;32811;52.382;5.270;2023-05-22T09:49:10;101542.16;;;23.43;100.00
47054;BME280;32811;52.382;5.270;2023-05-22T09:51:44;101521.97;;;23.20;100.00
47054;BME280;32811;52.382;5.270;2023-05-22T09:54:15;101540.53;;;23.40;100.00
47054;BME280;32811;52.382;5.270;2023-05-22T09:56:48;101523.22;;;23.79;100.00
47054;BME280;32811;52.382;5.270;2023-05-22T09:59:19;101535.56;;;23.78;100.00
47054;BME280;32811;52.382;5.270;2023-05-22T10:01:48;101545.34;;;23.75;100.00
47054;BME280;32811;52.382;5.270;2023-05-22T10:04:17;101520.13;;;23.46;100.00
47054;BME280;32811;52.382;5.270;2023-05-22T10:06:49;101521.44;;;23.79;100.00
47054;BME280;32811;52.382;5.270;2023-05-22T10:09:23;101529.50;;;23.98;100.00
47054;BME280;32811;52.382;5.270;2023-05-22T10:11:53;101539.66;;;24.08;100.00
47054;BME280;32811;52.382;5.270;2023-05-22T10:14:42;101526.34;;;24.11;100.00
47054;BME280;32811;52.382;5.270;2023-05-22T10:17:23;101525.63;;;24.28;100.00
47054;BME280;32811;52.382;5.270;2023-05-22T10:20:32;101540.75;;;24.44;100.00
47054;BME280;32811;52.382;5.270;2023-05-22T10:23:06;101527.53;;;24.24;100.00
47054;BME280;32811;52.382;5.270;2023-05-22T10:25:37;101542.50;;;24.23;100.00
47054;BME280;32811;52.382;5.270;2023-05-22T10:28:05;101556.75;;;24.62;100.00
47054;BME280;32811;52.382;5.270;2023-05-22T10:33:42;101548.44;;;23.86;100.00
47054;BME280;32811;52.382;5.270;2023-05-22T10:36:18;101542.03;;;23.46;100.00
47054;BME280;32811;52.382;5.270;2023-05-22T10:41:56;101523.69;;;23.67;100.00
47054;BME280;32811;52.382;5.270;2023-05-22T10:44:25;101531.44;;;23.93;100.00
47054;BME280;32811;52.382;5.270;2023-05-22T10:46:52;101516.28;;;24.20;100.00
47054;BME280;32811;52.382;5.270;2023-05-22T10:49:24;101521.94;;;24.54;100.00
47054;BME280;32811;52.382;5.270;2023-05-22T10:51:58;101502.78;;;24.49;100.00
47054;BME280;32811;52.382;5.270;2023-05-22T10:54:38;101494.31;;;24.81;100.00
47054;BME280;32811;52.382;5.270;2023-05-22T10:57:13;101496.53;;;24.09;100.00
47054;BME280;32811;52.382;5.270;2023-05-22T10:59:46;101505.38;;;23.86;100.00
47054;BME280;32811;52.382;5.270;2023-05-22T11:02:37;101500.44;;;23.32;100.00
47054;BME280;32811;52.382;5.270;2023-05-22T11:10:55;101516.34;;;24.39;100.00
47054;BME280;32811;52.382;5.270;2023-05-22T11:13:25;101493.63;;;23.94;100.00
47054;BME280;32811;52.382;5.270;2023-05-22T11:15:54;101491.16;;;23.90;100.00
47054;BME280;32811;52.382;5.270;2023-05-22T11:18:23;101475.50;;;24.28;100.00
47054;BME280;32811;52.382;5.270;2023-05-22T11:20:53;101494.75;;;24.52;100.00
47054;BME280;32811;52.382;5.270;2023-05-22T11:23:24;101505.75;;;24.61;100.00
47054;BME280;32811;52.382;5.270;2023-05-22T11:25:52;101481.03;;;24.42;100.00
47054;BME280;32811;52.382;5.270;2023-05-22T11:28:26;101501.31;;;24.62;100.00
47054;BME280;32811;52.382;5.270;2023-05-22T11:30:58;101471.22;;;24.45;100.00
47054;BME280;32811;52.382;5.270;2023-05-22T11:33:28;101477.41;;;24.44;100.00
47054;BME280;32811;52.382;5.270;2023-05-22T11:36:04;101472.72;;;24.31;100.00
47054;BME280;32811;52.382;5.270;2023-05-22T11:38:31;101496.28;;;24.35;100.00
47054;BME280;32811;52.382;5.270;2023-05-22T11:40:59;101480.34;;;24.38;100.00
47054;BME280;32811;52.382;5.270;2023-05-22T11:43:29;101484.63;;;24.20;100.00
47054;BME280;32811;52.382;5.270;2023-05-22T11:46:07;101509.00;;;24.48;100.00
47054;BME280;32811;52.382;5.270;2023-05-22T11:48:34;101486.78;;;24.31;100.00
47054;BME280;32811;52.382;5.270;2023-05-22T11:51:09;101489.84;;;24.00;100.00
47054;BME280;32811;52.382;5.270;2023-05-22T11:53:44;101508.00;;;23.63;100.00
47054;BME280;32811;52.382;5.270;2023-05-22T11:56:19;101517.81;;;23.60;100.00
47054;BME280;32811;52.382;5.270;2023-05-22T11:58:50;101512.00;;;23.28;100.00
47054;BME280;32811;52.382;5.270;2023-05-22T12:01:26;101510.09;;;23.08;100.00
47054;BME280;32811;52.382;5.270;2023-05-22T12:03:58;101503.44;;;22.98;100.00
47054;BME280;32811;52.382;5.270;2023-05-22T12:06:37;101541.03;;;23.03;100.00
47054;BME280;32811;52.382;5.270;2023-05-22T12:09:04;101523.66;;;22.72;100.00
47054;BME280;32811;52.382;5.270;2023-05-22T12:11:36;101540.81;;;22.84;100.00
47054;BME280;32811;52.382;5.270;2023-05-22T12:14:03;101543.50;;;22.83;100.00
47054;BME280;32811;52.382;5.270;2023-05-22T12:16:37;101552.03;;;23.14;100.00
47054;BME280;32811;52.382;5.270;2023-05-22T12:19:16;101527.72;;;23.06;100.00
47054;BME280;32811;52.382;5.270;2023-05-22T12:21:44;101533.69;;;22.86;100.00
47054;BME280;32811;52.382;5.270;2023-05-22T12:24:17;101547.09;;;22.80;100.00
47054;BME280;32811;52.382;5.270;2023-05-22T12:26:51;101529.22;;;22.65;100.00
47054;BME280;32811;52.382;5.270;2023-05-22T12:29:23;101560.50;;;22.72;100.00
47054;BME280;32811;52.382;5.270;2023-05-22T12:32:08;101530.22;;;22.61;100.00
47054;BME280;32811;52.382;5.270;2023-05-22T12:34:46;101556.94;;;23.00;100.00
47054;BME280;32811;52.382;5.270;2023-05-22T12:37:20;101546.25;;;23.05;100.00
47054;BME280;32811;52.382;5.270;2023-05-22T12:40:02;101535.19;;;23.18;100.00
47054;BME280;32811;52.382;5.270;2023-05-22T12:42:49;101559.13;;;23.12;100.00
47054;BME280;32811;52.382;5.270;2023-05-22T12:45:22;101554.63;;;22.91;100.00
47054;BME280;32811;52.382;5.270;2023-05-22T12:47:49;101559.44;;;22.78;100.00
47054;BME280;32811;52.382;5.270;2023-05-22T12:50:15;101572.59;;;22.78;100.00
47054;BME280;32811;52.382;5.270;2023-05-22T12:52:42;101579.38;;;22.85;100.00
47054;BME280;32811;52.382;5.270;2023-05-22T12:55:09;101559.28;;;22.57;100.00
47054;BME280;32811;52.382;5.270;2023-05-22T12:57:36;101588.75;;;22.67;100.00
47054;BME280;32811;52.382;5.270;2023-05-22T13:00:03;101576.78;;;22.58;100.00
47054;BME280;32811;52.382;5.270;2023-05-22T13:02:31;101571.78;;;22.51;100.00
47054;BME280;32811;52.382;5.270;2023-05-22T13:04:58;101574.84;;;22.64;100.00
47054;BME280;32811;52.382;5.270;2023-05-22T13:07:24;101574.75;;;22.67;100.00
47054;BME280;32811;52.382;5.270;2023-05-22T13:09:51;101577.88;;;22.26;100.00
47054;BME280;32811;52.382;5.270;2023-05-22T13:12:17;101580.84;;;22.14;100.00